createdAt,value
2018-06-13T00:01:52.148Z,23.83
2018-06-13T00:04:18.834Z,23.89
2018-06-13T00:06:45.516Z,23.98
2018-06-13T00:09:12.211Z,24.08
2018-06-13T00:11:38.879Z,23.93
2018-06-13T00:14:05.573Z,23.75
2018-06-13T00:16:32.257Z,23.67
2018-06-13T00:18:58.869Z,23.68
2018-06-13T00:21:25.581Z,23.62
2018-06-13T00:23:52.237Z,23.57
2018-06-13T00:26:18.878Z,23.50
2018-06-13T00:28:45.563Z,23.48
2018-06-13T00:31:12.304Z,23.46
2018-06-13T00:33:38.940Z,23.45
2018-06-13T00:36:05.667Z,23.43
2018-06-13T00:38:32.354Z,23.41
2018-06-13T00:40:59.033Z,23.39
2018-06-13T00:43:25.695Z,23.40
2018-06-13T00:45:52.397Z,23.41
2018-06-13T00:48:19.090Z,23.35
2018-06-13T00:50:45.860Z,23.30
2018-06-13T00:53:12.640Z,23.29
2018-06-13T00:55:39.290Z,23.28
2018-06-13T00:58:05.943Z,23.28
2018-06-13T01:00:32.616Z,23.48
2018-06-13T01:02:59.262Z,23.54
2018-06-13T01:05:25.934Z,23.65
2018-06-13T01:07:52.576Z,23.77
2018-06-13T01:10:19.296Z,23.78
2018-06-13T01:12:45.946Z,23.52
2018-06-13T01:15:12.618Z,23.44
2018-06-13T01:17:39.276Z,23.40
2018-06-13T01:20:05.927Z,23.32
2018-06-13T01:22:32.602Z,23.31
2018-06-13T01:24:59.332Z,23.29
2018-06-13T01:27:26.002Z,23.21
2018-06-13T01:29:52.740Z,23.35
2018-06-13T01:32:19.431Z,23.44
2018-06-13T01:34:46.127Z,23.56
2018-06-13T01:37:12.779Z,23.65
2018-06-13T01:39:39.430Z,23.65
2018-06-13T01:42:06.111Z,23.74
2018-06-13T01:44:32.799Z,23.78
2018-06-13T01:46:59.481Z,23.81
2018-06-13T01:49:26.127Z,23.82
2018-06-13T01:51:52.839Z,23.91
2018-06-13T01:54:19.530Z,23.90
2018-06-13T01:56:46.145Z,23.93
2018-06-13T01:59:12.808Z,23.97
2018-06-13T02:01:39.599Z,23.97
2018-06-13T02:04:06.260Z,24.00
2018-06-13T02:06:32.912Z,24.02
2018-06-13T02:08:59.605Z,24.06
2018-06-13T02:11:26.248Z,24.04
2018-06-13T02:13:52.957Z,24.05
2018-06-13T02:16:19.608Z,24.11
2018-06-13T02:18:46.251Z,24.08
2018-06-13T02:21:12.953Z,24.10
2018-06-13T02:23:39.692Z,24.14
2018-06-13T02:26:06.350Z,24.15
2018-06-13T02:28:33.003Z,24.14
2018-06-13T02:30:59.677Z,24.17
2018-06-13T02:33:26.376Z,24.15
2018-06-13T02:35:53.053Z,24.10
2018-06-13T02:38:19.665Z,24.15
2018-06-13T02:40:46.334Z,24.16
2018-06-13T02:43:12.994Z,24.16
2018-06-13T02:45:39.719Z,24.16
2018-06-13T02:48:06.421Z,24.18
2018-06-13T02:50:33.036Z,24.18
2018-06-13T02:52:59.737Z,24.17
2018-06-13T02:55:26.389Z,24.17
2018-06-13T02:57:53.095Z,24.20
2018-06-13T03:00:19.771Z,24.16
2018-06-13T03:02:46.429Z,24.20
2018-06-13T03:05:13.083Z,24.18
2018-06-13T03:07:39.785Z,24.24
2018-06-13T03:10:06.443Z,24.19
2018-06-13T03:12:33.135Z,24.22
2018-06-13T03:14:59.789Z,24.26
2018-06-13T03:17:26.439Z,24.18
2018-06-13T03:19:53.108Z,24.13
2018-06-13T03:22:19.793Z,24.13
2018-06-13T03:24:46.439Z,24.18
2018-06-13T03:27:13.095Z,24.22
2018-06-13T03:29:39.776Z,24.25
2018-06-13T03:32:06.441Z,24.34
2018-06-13T03:34:33.156Z,24.35
2018-06-13T03:36:59.805Z,24.37
2018-06-13T03:39:26.479Z,24.36
2018-06-13T03:41:53.235Z,24.33
2018-06-13T03:44:19.880Z,24.37
2018-06-13T03:46:46.537Z,24.37
2018-06-13T03:49:13.198Z,24.48
2018-06-13T03:51:39.894Z,24.57
2018-06-13T03:54:06.535Z,24.67
2018-06-13T03:56:33.251Z,24.82
2018-06-13T03:59:00.027Z,24.77
2018-06-13T04:01:26.644Z,24.84
2018-06-13T04:03:53.336Z,24.91
2018-06-13T04:06:20.035Z,25.04
2018-06-13T04:08:46.651Z,25.09
2018-06-13T04:11:13.389Z,25.15
2018-06-13T04:13:40.030Z,25.07
2018-06-13T04:16:06.724Z,24.92
2018-06-13T04:18:33.436Z,24.68
2018-06-13T04:21:00.131Z,24.64
2018-06-13T04:23:26.799Z,24.61
2018-06-13T04:25:53.524Z,24.57
2018-06-13T04:28:20.196Z,24.58
2018-06-13T04:30:46.887Z,24.66
2018-06-13T04:33:13.531Z,24.56
2018-06-13T04:35:40.263Z,24.63
2018-06-13T04:38:06.878Z,24.66
2018-06-13T04:40:33.574Z,24.72
2018-06-13T04:43:00.242Z,24.73
2018-06-13T04:45:26.892Z,24.76
2018-06-13T04:47:53.634Z,24.83
2018-06-13T04:50:20.315Z,24.85
2018-06-13T04:52:46.986Z,24.86
2018-06-13T04:55:13.683Z,24.91
2018-06-13T04:57:40.387Z,24.90
2018-06-13T05:00:07.051Z,24.95
2018-06-13T05:02:33.722Z,24.98
2018-06-13T05:05:00.379Z,25.04
2018-06-13T05:07:27.070Z,25.06
2018-06-13T05:09:53.731Z,25.23
2018-06-13T05:12:20.402Z,25.22
2018-06-13T05:14:47.113Z,25.24
2018-06-13T05:17:13.772Z,25.25
2018-06-13T05:19:40.434Z,25.28
2018-06-13T05:22:07.089Z,25.29
2018-06-13T05:24:33.756Z,25.33
2018-06-13T05:27:00.476Z,25.44
2018-06-13T05:29:27.142Z,25.37
2018-06-13T05:31:53.858Z,25.44
2018-06-13T05:34:20.563Z,25.29
2018-06-13T05:36:47.159Z,25.29
2018-06-13T05:39:13.831Z,25.36
2018-06-13T05:41:40.477Z,25.32
2018-06-13T05:44:07.177Z,25.37
2018-06-13T05:46:35.568Z,25.32
2018-06-13T05:49:00.619Z,25.28
2018-06-13T05:51:27.474Z,25.04
2018-06-13T05:53:54.145Z,24.93
2018-06-13T05:56:20.888Z,25.13
2018-06-13T05:58:47.543Z,25.19
2018-06-13T06:01:14.225Z,25.32
2018-06-13T06:03:40.908Z,25.45
2018-06-13T06:06:07.558Z,25.46
2018-06-13T06:08:34.303Z,25.48
2018-06-13T06:11:00.936Z,25.40
2018-06-13T06:13:27.589Z,25.50
2018-06-13T06:15:54.295Z,25.54
2018-06-13T06:18:21.046Z,25.55
2018-06-13T06:20:47.650Z,25.55
2018-06-13T06:23:14.397Z,25.54
2018-06-13T06:25:41.019Z,25.58
2018-06-13T06:28:07.677Z,25.77
2018-06-13T06:30:34.346Z,25.74
2018-06-13T06:33:00.992Z,25.70
2018-06-13T06:35:27.694Z,25.70
2018-06-13T06:37:54.393Z,25.77
2018-06-13T06:40:21.069Z,25.72
2018-06-13T06:42:47.718Z,25.68
2018-06-13T06:45:14.394Z,25.76
2018-06-13T06:47:41.102Z,25.82
2018-06-13T06:50:07.716Z,25.80
2018-06-13T06:52:34.397Z,25.84
2018-06-13T06:55:01.075Z,25.79
2018-06-13T06:57:27.735Z,25.64
2018-06-13T06:59:54.416Z,25.68
2018-06-13T07:02:21.110Z,25.50
2018-06-13T07:04:47.767Z,25.62
2018-06-13T07:07:14.453Z,25.61
2018-06-13T07:09:41.090Z,25.70
2018-06-13T07:12:07.772Z,25.67
2018-06-13T07:14:37.283Z,25.62
2018-06-13T07:17:03.979Z,25.75
2018-06-13T07:19:30.641Z,25.73
2018-06-13T07:21:57.271Z,25.71
2018-06-13T07:24:25.085Z,25.79
2018-06-13T07:26:51.755Z,25.70
2018-06-13T07:29:18.384Z,25.72
2018-06-13T07:31:45.049Z,25.79
2018-06-13T07:34:11.748Z,25.85
2018-06-13T07:36:38.410Z,25.78
2018-06-13T07:39:05.091Z,25.86
2018-06-13T07:41:31.784Z,25.86
2018-06-13T07:43:58.485Z,25.79
2018-06-13T07:46:25.162Z,25.88
2018-06-13T07:48:51.915Z,26.00
2018-06-13T07:51:18.592Z,25.91
2018-06-13T07:53:45.273Z,25.78
2018-06-13T07:56:12.025Z,25.78
2018-06-13T07:58:38.692Z,25.71
2018-06-13T08:01:05.378Z,25.74
2018-06-13T08:03:32.032Z,25.61
2018-06-13T08:05:58.697Z,25.78
2018-06-13T08:08:25.442Z,25.81
2018-06-13T08:10:52.063Z,25.72
2018-06-13T08:13:18.894Z,25.73
2018-06-13T08:15:45.555Z,25.65
2018-06-13T08:18:12.214Z,25.67
2018-06-13T08:20:38.883Z,25.75
2018-06-13T08:23:05.909Z,25.70
2018-06-13T08:25:32.564Z,25.92
2018-06-13T08:27:59.233Z,25.90
2018-06-13T08:30:26.000Z,25.79
2018-06-13T08:32:52.627Z,25.69
2018-06-13T08:35:19.313Z,25.71
2018-06-13T08:37:47.289Z,25.70
2018-06-13T08:40:12.616Z,25.67
2018-06-13T08:42:39.275Z,25.63
2018-06-13T08:45:05.933Z,25.63
2018-06-13T08:47:32.700Z,25.73
2018-06-13T08:49:59.378Z,25.67
2018-06-13T08:52:26.027Z,25.91
2018-06-13T08:54:52.711Z,25.83
2018-06-13T08:57:19.382Z,25.83
2018-06-13T08:59:46.088Z,25.79
2018-06-13T09:02:12.739Z,25.71
2018-06-13T09:04:39.405Z,25.74
2018-06-13T09:07:06.081Z,25.74
2018-06-13T09:09:32.757Z,25.68
2018-06-13T09:11:59.456Z,25.70
2018-06-13T09:14:26.087Z,25.62
2018-06-13T09:16:52.739Z,25.56
2018-06-13T09:19:19.410Z,25.52
2018-06-13T09:21:46.093Z,25.47
2018-06-13T09:24:12.747Z,25.49
2018-06-13T09:26:39.449Z,25.57
2018-06-13T09:29:06.115Z,25.58
2018-06-13T09:31:32.785Z,25.62
2018-06-13T09:33:59.450Z,25.68
2018-06-13T09:36:26.124Z,25.59
2018-06-13T09:38:52.784Z,25.48
2018-06-13T09:41:19.454Z,25.56
2018-06-13T09:43:46.141Z,25.58
2018-06-13T09:46:12.832Z,25.70
2018-06-13T09:48:39.493Z,25.66
2018-06-13T09:51:06.192Z,25.77
2018-06-13T09:53:32.882Z,25.73
2018-06-13T09:55:59.555Z,25.72
2018-06-13T09:58:26.244Z,25.72
2018-06-13T10:00:52.939Z,25.81
2018-06-13T10:03:19.563Z,25.82
2018-06-13T10:05:46.242Z,26.02
2018-06-13T10:08:12.908Z,25.96
2018-06-13T10:10:39.559Z,25.93
2018-06-13T10:13:06.330Z,25.87
2018-06-13T10:15:33.047Z,25.86
2018-06-13T10:17:59.663Z,25.61
2018-06-13T10:20:26.361Z,25.76
2018-06-13T10:22:52.998Z,25.72
2018-06-13T10:25:19.716Z,25.67
2018-06-13T10:27:48.619Z,25.66
2018-06-13T10:30:15.288Z,25.60
2018-06-13T10:32:41.965Z,25.63
2018-06-13T10:35:08.647Z,25.68
2018-06-13T10:37:35.314Z,25.71
2018-06-13T10:40:01.982Z,25.65
2018-06-13T10:42:28.673Z,25.56
2018-06-13T10:44:55.390Z,25.60
2018-06-13T10:47:22.045Z,25.62
2018-06-13T10:49:48.737Z,25.61
2018-06-13T10:52:15.425Z,25.65
2018-06-13T10:54:42.191Z,25.65
2018-06-13T10:57:08.843Z,25.62
2018-06-13T10:59:35.499Z,25.62
2018-06-13T11:02:02.209Z,25.60
2018-06-13T11:04:28.845Z,25.66
2018-06-13T11:06:55.499Z,25.62
2018-06-13T11:09:22.209Z,25.62
2018-06-13T11:11:48.954Z,25.63
2018-06-13T11:14:15.573Z,25.65
2018-06-13T11:16:42.223Z,25.56
2018-06-13T11:19:08.905Z,25.61
2018-06-13T11:21:35.574Z,25.50
2018-06-13T11:24:02.249Z,25.52
2018-06-13T11:26:28.899Z,25.61
2018-06-13T11:28:55.720Z,25.61
2018-06-13T11:31:23.425Z,25.55
2018-06-13T11:33:50.071Z,25.59
2018-06-13T11:36:16.736Z,25.51
2018-06-13T11:38:43.417Z,25.47
2018-06-13T11:41:10.254Z,25.54
2018-06-13T11:43:39.447Z,25.58
2018-06-13T11:46:06.099Z,25.56
2018-06-13T11:48:32.819Z,25.57
2018-06-13T11:50:59.485Z,25.37
2018-06-13T11:53:26.128Z,25.43
2018-06-13T11:55:52.835Z,25.40
2018-06-13T11:58:19.465Z,25.43
2018-06-13T12:00:46.131Z,25.36
2018-06-13T12:03:12.848Z,25.36
2018-06-13T12:05:39.518Z,25.38
2018-06-13T12:08:06.176Z,25.29
2018-06-13T12:10:32.867Z,25.24
2018-06-13T12:12:59.871Z,25.26
2018-06-13T12:15:26.544Z,25.51
2018-06-13T12:17:53.231Z,25.64
2018-06-13T12:20:19.934Z,25.65
2018-06-13T12:22:46.641Z,25.68
2018-06-13T12:25:13.282Z,25.71
2018-06-13T12:27:41.220Z,25.66
2018-06-13T12:30:06.673Z,25.95
2018-06-13T12:32:33.470Z,25.93
2018-06-13T12:35:00.103Z,25.67
2018-06-13T12:37:26.842Z,25.39
2018-06-13T12:39:53.527Z,25.32
2018-06-13T12:42:20.253Z,25.35
2018-06-13T12:44:46.910Z,25.22
2018-06-13T12:47:13.620Z,25.10
2018-06-13T12:49:40.343Z,25.13
2018-06-13T12:52:07.056Z,25.09
2018-06-13T12:54:33.687Z,25.19
2018-06-13T12:57:00.427Z,25.42
2018-06-13T12:59:27.188Z,25.54
2018-06-13T13:01:53.923Z,25.54
2018-06-13T13:04:20.629Z,25.69
2018-06-13T13:06:47.373Z,25.71
2018-06-13T13:09:14.103Z,25.88
2018-06-13T13:11:40.816Z,25.71
2018-06-13T13:14:10.278Z,25.73
2018-06-13T13:16:36.929Z,25.43
2018-06-13T13:19:03.630Z,25.22
2018-06-13T13:21:30.321Z,25.02
2018-06-13T13:23:56.951Z,25.36
2018-06-13T13:26:23.788Z,25.51
2018-06-13T13:28:50.424Z,25.50
2018-06-13T13:31:17.088Z,25.66
2018-06-13T13:33:43.780Z,25.65
2018-06-13T13:36:10.557Z,25.63
2018-06-13T13:38:37.288Z,25.80
2018-06-13T13:41:03.937Z,25.56
2018-06-13T13:43:30.650Z,25.36
2018-06-13T13:45:57.322Z,25.26
2018-06-13T13:48:24.009Z,25.45
2018-06-13T13:50:50.711Z,25.57
2018-06-13T13:53:17.357Z,25.38
2018-06-13T13:55:44.146Z,25.12
2018-06-13T13:58:10.773Z,25.07
2018-06-13T14:00:37.470Z,25.34
2018-06-13T14:03:11.272Z,25.35
2018-06-13T14:05:44.626Z,25.37
2018-06-13T14:08:11.312Z,25.51
2018-06-13T14:10:48.229Z,25.59
2018-06-13T14:13:21.409Z,25.65
2018-06-13T14:15:48.067Z,25.72
2018-06-13T14:18:22.360Z,25.78
2018-06-13T14:20:56.742Z,25.94
2018-06-13T14:23:23.451Z,25.73
2018-06-13T14:25:50.064Z,25.48
2018-06-13T14:28:17.222Z,25.66
2018-06-13T14:30:43.824Z,25.59
2018-06-13T14:33:10.533Z,25.46
2018-06-13T14:35:37.228Z,25.52
2018-06-13T14:38:03.900Z,25.56
2018-06-13T14:40:30.557Z,25.58
2018-06-13T14:42:57.322Z,25.54
2018-06-13T14:45:23.995Z,25.58
2018-06-13T14:47:50.695Z,25.66
2018-06-13T14:50:17.365Z,25.61
2018-06-13T14:52:44.033Z,25.58
2018-06-13T14:55:10.696Z,25.70
2018-06-13T14:57:37.392Z,25.70
2018-06-13T15:00:04.055Z,25.59
2018-06-13T15:02:30.751Z,25.62
2018-06-13T15:04:57.398Z,25.65
2018-06-13T15:07:24.144Z,25.65
2018-06-13T15:09:50.762Z,25.63
2018-06-13T15:12:17.407Z,25.63
2018-06-13T15:14:44.133Z,25.63
2018-06-13T15:17:10.836Z,25.57
2018-06-13T15:19:37.511Z,25.46
2018-06-13T15:22:04.168Z,25.68
2018-06-13T15:24:30.843Z,25.60
2018-06-13T15:26:57.532Z,25.59
2018-06-13T15:29:24.179Z,25.51
2018-06-13T15:31:50.873Z,25.57
2018-06-13T15:34:17.557Z,25.55
2018-06-13T15:36:44.269Z,25.54
2018-06-13T15:39:10.919Z,25.46
2018-06-13T15:41:37.611Z,25.48
2018-06-13T15:44:04.250Z,25.53
2018-06-13T15:46:30.878Z,25.52
2018-06-13T15:48:57.563Z,25.47
2018-06-13T15:51:24.198Z,25.52
2018-06-13T15:53:50.851Z,25.69
2018-06-13T15:56:17.509Z,25.85
2018-06-13T15:58:44.205Z,26.01
2018-06-13T16:01:10.922Z,26.09
2018-06-13T16:03:37.599Z,26.07
2018-06-13T16:06:04.304Z,26.09
2018-06-13T16:08:30.911Z,26.16
2018-06-13T16:10:57.601Z,26.18
2018-06-13T16:13:24.247Z,25.55
2018-06-13T16:15:50.907Z,25.63
2018-06-13T16:18:17.616Z,25.44
2018-06-13T16:20:44.266Z,25.41
2018-06-13T16:23:10.935Z,25.34
2018-06-13T16:25:37.608Z,25.15
2018-06-13T16:28:04.270Z,25.35
2018-06-13T16:30:30.988Z,25.31
2018-06-13T16:32:57.749Z,25.07
2018-06-13T16:35:24.395Z,24.81
2018-06-13T16:37:51.057Z,25.14
2018-06-13T16:40:17.710Z,25.31
2018-06-13T16:42:44.371Z,25.42
2018-06-13T16:45:11.039Z,25.54
2018-06-13T16:47:37.749Z,25.55
2018-06-13T16:50:04.444Z,25.49
2018-06-13T16:52:31.102Z,25.58
2018-06-13T16:54:57.747Z,25.60
2018-06-13T16:57:24.500Z,25.63
2018-06-13T16:59:51.152Z,25.68
2018-06-13T17:02:17.911Z,25.81
2018-06-13T17:04:44.567Z,25.81
2018-06-13T17:07:11.263Z,25.80
2018-06-13T17:09:37.911Z,25.82
2018-06-13T17:12:04.618Z,25.79
2018-06-13T17:14:31.279Z,25.84
2018-06-13T17:16:57.927Z,25.88
2018-06-13T17:19:24.600Z,25.85
2018-06-13T17:21:51.259Z,25.75
2018-06-13T17:24:17.961Z,25.71
2018-06-13T17:26:44.588Z,25.65
2018-06-13T17:29:11.290Z,25.67
2018-06-13T17:31:38.335Z,25.66
2018-06-13T17:34:05.005Z,25.70
2018-06-13T17:36:31.663Z,25.76
2018-06-13T17:38:58.369Z,25.67
2018-06-13T17:41:25.036Z,25.62
2018-06-13T17:43:51.700Z,25.60
2018-06-13T17:46:18.351Z,25.58
2018-06-13T17:48:45.081Z,25.57
2018-06-13T17:51:11.759Z,25.56
2018-06-13T17:53:38.433Z,25.55
2018-06-13T17:56:05.098Z,25.54
2018-06-13T17:58:31.748Z,25.51
2018-06-13T18:00:58.411Z,25.49
2018-06-13T18:03:25.138Z,25.49
2018-06-13T18:05:51.754Z,25.47
2018-06-13T18:08:18.486Z,25.46
2018-06-13T18:10:45.151Z,25.46
2018-06-13T18:13:11.857Z,25.45
2018-06-13T18:15:38.516Z,25.43
2018-06-13T18:18:05.311Z,25.42
2018-06-13T18:20:31.974Z,25.39
2018-06-13T18:22:58.628Z,25.38
2018-06-13T18:25:25.289Z,25.41
2018-06-13T18:27:51.949Z,25.41
2018-06-13T18:30:18.644Z,25.35
2018-06-13T18:32:45.316Z,25.35
2018-06-13T18:35:12.011Z,25.33
2018-06-13T18:37:38.671Z,25.32
2018-06-13T18:40:05.363Z,25.32
2018-06-13T18:42:32.067Z,25.33
2018-06-13T18:44:58.728Z,25.34
2018-06-13T18:47:25.426Z,25.36
2018-06-13T18:49:52.115Z,25.35
2018-06-13T18:52:18.747Z,25.34
2018-06-13T18:54:45.416Z,25.29
2018-06-13T18:57:12.125Z,25.33
2018-06-13T18:59:38.781Z,25.28
2018-06-13T19:02:05.431Z,25.26
2018-06-13T19:04:32.121Z,25.29
2018-06-13T19:06:58.776Z,25.27
2018-06-13T19:09:25.532Z,25.27
2018-06-13T19:11:52.148Z,25.24
2018-06-13T19:14:18.801Z,25.25
2018-06-13T19:16:45.521Z,25.27
2018-06-13T19:19:12.172Z,25.23
2018-06-13T19:21:38.874Z,25.24
2018-06-13T19:24:05.529Z,25.24
2018-06-13T19:26:32.241Z,25.22
2018-06-13T19:28:58.932Z,25.22
2018-06-13T19:31:25.547Z,25.19
2018-06-13T19:33:52.251Z,25.15
2018-06-13T19:36:19.094Z,25.12
2018-06-13T19:38:45.747Z,25.10
2018-06-13T19:41:12.393Z,25.11
2018-06-13T19:43:39.060Z,25.12
2018-06-13T19:46:05.816Z,25.11
2018-06-13T19:48:32.536Z,25.07
2018-06-13T19:50:59.186Z,25.08
2018-06-13T19:53:25.900Z,25.07
2018-06-13T19:55:52.560Z,25.06
2018-06-13T19:58:19.296Z,25.04
2018-06-13T20:00:45.932Z,25.00
2018-06-13T20:03:12.596Z,24.98
2018-06-13T20:05:39.308Z,25.00
2018-06-13T20:08:05.928Z,24.98
2018-06-13T20:10:32.593Z,24.96
2018-06-13T20:12:59.293Z,24.96
2018-06-13T20:15:26.003Z,24.95
2018-06-13T20:17:52.655Z,24.93
2018-06-13T20:20:19.317Z,24.91
2018-06-13T20:22:45.983Z,24.93
2018-06-13T20:25:12.733Z,24.91
2018-06-13T20:27:39.294Z,24.90
2018-06-13T20:30:05.931Z,24.90
2018-06-13T20:32:32.624Z,24.91
2018-06-13T20:35:00.595Z,24.89
2018-06-13T20:37:25.900Z,24.87
2018-06-13T20:39:52.631Z,24.87
2018-06-13T20:42:19.309Z,24.87
2018-06-13T20:44:45.918Z,24.88
2018-06-13T20:47:12.605Z,24.88
2018-06-13T20:49:39.264Z,24.85
2018-06-13T20:52:06.007Z,24.86
2018-06-13T20:54:32.657Z,24.85
2018-06-13T20:56:59.371Z,24.85
2018-06-13T20:59:26.094Z,24.86
2018-06-13T21:01:55.766Z,24.87
2018-06-13T21:04:22.417Z,24.84
2018-06-13T21:06:49.065Z,24.83
2018-06-13T21:09:15.739Z,24.83
2018-06-13T21:11:42.405Z,24.83
2018-06-13T21:14:09.056Z,24.84
2018-06-13T21:16:35.765Z,24.83
2018-06-13T21:19:02.414Z,24.78
2018-06-13T21:21:29.147Z,24.79
2018-06-13T21:23:55.757Z,24.78
2018-06-13T21:26:22.425Z,24.78
2018-06-13T21:28:49.088Z,24.78
2018-06-13T21:31:15.755Z,24.81
2018-06-13T21:33:42.410Z,24.77
2018-06-13T21:36:09.072Z,24.76
2018-06-13T21:38:35.768Z,24.76
2018-06-13T21:41:02.476Z,24.76
2018-06-13T21:43:29.184Z,24.78
2018-06-13T21:45:55.912Z,24.77
2018-06-13T21:48:22.644Z,24.74
2018-06-13T21:50:49.342Z,24.74
2018-06-13T21:53:15.967Z,24.73
2018-06-13T21:55:42.623Z,24.73
2018-06-13T21:58:09.305Z,24.72
2018-06-13T22:00:35.959Z,24.71
2018-06-13T22:03:02.622Z,24.69
2018-06-13T22:05:29.296Z,24.66
2018-06-13T22:07:55.997Z,24.69
2018-06-13T22:10:22.656Z,24.67
2018-06-13T22:12:49.368Z,24.66
2018-06-13T22:15:16.109Z,24.65
2018-06-13T22:17:42.755Z,24.67
2018-06-13T22:20:09.410Z,24.64
2018-06-13T22:22:36.128Z,24.61
2018-06-13T22:25:02.778Z,24.62
2018-06-13T22:27:29.475Z,24.61
2018-06-13T22:29:56.109Z,24.60
2018-06-13T22:32:22.861Z,24.60
2018-06-13T22:34:49.481Z,24.60
2018-06-13T22:37:16.138Z,24.63
2018-06-13T22:39:42.839Z,24.61
2018-06-13T22:42:12.428Z,24.58
2018-06-13T22:44:39.139Z,24.57
2018-06-13T22:47:05.876Z,24.55
2018-06-13T22:49:32.492Z,24.57
2018-06-13T22:51:59.209Z,24.52
2018-06-13T22:54:25.835Z,24.56
2018-06-13T22:56:52.533Z,24.55
2018-06-13T22:59:19.181Z,24.50
2018-06-13T23:01:45.838Z,24.52
2018-06-13T23:04:12.523Z,24.51
2018-06-13T23:06:39.187Z,24.50
2018-06-13T23:09:05.921Z,24.49
2018-06-13T23:11:32.674Z,24.49
2018-06-13T23:13:59.403Z,24.52
2018-06-13T23:16:26.098Z,24.45
2018-06-13T23:18:52.743Z,24.47
2018-06-13T23:21:19.372Z,24.44
2018-06-13T23:23:46.030Z,24.46
2018-06-13T23:26:12.721Z,24.41
2018-06-13T23:28:39.373Z,24.47
2018-06-13T23:31:06.033Z,24.44
2018-06-13T23:33:32.730Z,24.45
2018-06-13T23:35:59.342Z,24.40
2018-06-13T23:38:27.329Z,24.43
2018-06-13T23:40:52.655Z,24.43
2018-06-13T23:43:19.369Z,24.42
2018-06-13T23:45:46.073Z,24.44
2018-06-13T23:48:12.724Z,24.40
2018-06-13T23:50:42.311Z,24.41
2018-06-13T23:53:08.969Z,24.42
2018-06-13T23:55:35.666Z,24.37
2018-06-13T23:58:02.361Z,24.38
